Erskine, New Jersey
Current Conditions -  °F | °C
As of 8:53 AM on Friday 31 Oct 2014 (Local Time) from KCDW Reporting Station
Overcast Overcast  
Wind Chill: 41°   Ceiling: 4700
Heat Index: 41°   Visibility: 10mi
Dew Point: 35°   Wind: 3mph
Humidity: 79%   Direction: 30°NNE
Pressure: 30.04"   Gusts: NA
Location:  41.1036°N, 74.2801°W
Report Text: KCDW 311253Z AUTO 03003KT 10SM OVC047 05/02 A3004 RMK AO2 SLP178 T00500017 TSNO
Loading
Personal Weather Stations






























Interactive Weather Map
Tropical Storm Tracking
New forecast layout! Learn more

10-Day Weather Forecast

Advertisements
Track Severe Weather on mobile